createdAt,value
2022-11-03T00:01:58.645Z,15.10
2022-11-03T00:04:25.589Z,10.13
2022-11-03T00:06:54.684Z,13.40
2022-11-03T00:09:23.168Z,11.93
2022-11-03T00:11:51.313Z,9.52
2022-11-03T00:14:18.670Z,9.85
2022-11-03T00:16:46.026Z,8.18
2022-11-03T00:19:15.238Z,8.82
2022-11-03T00:21:42.107Z,10.57
2022-11-03T00:24:09.199Z,14.27
2022-11-03T00:26:36.966Z,8.73
2022-11-03T00:29:08.794Z,12.13
2022-11-03T00:31:37.621Z,9.38
2022-11-03T00:34:05.481Z,11.18
2022-11-03T00:36:35.826Z,10.27
2022-11-03T00:39:03.505Z,7.72
2022-11-03T00:41:30.371Z,13.10
2022-11-03T00:43:57.654Z,11.20
2022-11-03T00:46:25.693Z,13.23
2022-11-03T00:48:52.597Z,11.20
2022-11-03T00:51:21.703Z,13.73
2022-11-03T00:53:53.033Z,9.27
2022-11-03T00:56:22.805Z,10.32
2022-11-03T01:01:53.266Z,10.55
2022-11-03T01:04:38.827Z,9.10
2022-11-03T01:07:06.305Z,9.25
2022-11-03T01:09:38.600Z,8.80
2022-11-03T01:12:09.609Z,8.73
2022-11-03T01:14:41.674Z,10.05
2022-11-03T01:17:10.881Z,13.40
2022-11-03T01:19:37.894Z,11.48
2022-11-03T01:22:07.827Z,15.35
2022-11-03T01:24:38.164Z,11.90
2022-11-03T01:27:04.984Z,13.70
2022-11-03T01:29:31.935Z,16.58
2022-11-03T01:31:58.972Z,13.32
2022-11-03T01:34:25.927Z,15.85
2022-11-03T01:36:52.784Z,16.50
2022-11-03T01:39:20.245Z,16.92
2022-11-03T01:41:51.391Z,15.35
2022-11-03T01:44:18.199Z,15.77
2022-11-03T01:46:55.826Z,16.58
2022-11-03T01:49:32.956Z,16.25
2022-11-03T01:52:12.154Z,13.73
2022-11-03T01:54:39.586Z,18.98
2022-11-03T01:57:10.922Z,17.98
2022-11-03T01:59:38.397Z,17.62
2022-11-03T02:02:05.604Z,21.62
2022-11-03T02:04:33.748Z,17.60
2022-11-03T02:07:23.202Z,15.65
2022-11-03T02:09:50.034Z,14.43
2022-11-03T02:12:17.447Z,13.07
2022-11-03T02:14:59.026Z,10.07
2022-11-03T02:17:28.494Z,10.88
2022-11-03T02:19:59.846Z,12.90
2022-11-03T02:22:46.884Z,12.70
2022-11-03T02:25:31.138Z,16.58
2022-11-03T02:27:58.821Z,11.93
2022-11-03T02:30:30.924Z,9.65
2022-11-03T02:33:13.713Z,9.15
2022-11-03T02:35:52.800Z,7.07
2022-11-03T02:38:21.134Z,5.53
2022-11-03T02:40:52.322Z,8.45
2022-11-03T02:43:20.658Z,6.70
2022-11-03T02:45:48.430Z,8.25
2022-11-03T02:48:16.366Z,7.75
2022-11-03T02:50:43.198Z,7.53
2022-11-03T02:53:14.308Z,6.90
2022-11-03T02:55:52.816Z,6.87
2022-11-03T02:58:42.507Z,6.03
2022-11-03T03:01:17.915Z,9.65
2022-11-03T03:03:57.954Z,6.62
2022-11-03T03:06:29.919Z,7.85
2022-11-03T03:09:02.997Z,7.75
2022-11-03T03:11:39.582Z,7.30
2022-11-03T03:14:07.850Z,4.78
2022-11-03T03:16:39.130Z,5.93
2022-11-03T03:19:23.431Z,7.72
2022-11-03T03:21:53.676Z,8.18
2022-11-03T03:25:06.841Z,6.47
2022-11-03T03:27:35.236Z,9.88
2022-11-03T03:30:05.818Z,6.70
2022-11-03T03:32:36.541Z,8.88
2022-11-03T03:35:07.739Z,8.45
2022-11-03T03:37:40.534Z,7.60
2022-11-03T03:40:11.677Z,7.70
2022-11-03T03:42:39.596Z,13.55
2022-11-03T03:45:08.492Z,7.68
2022-11-03T03:47:35.678Z,8.52
2022-11-03T03:50:02.594Z,6.00
2022-11-03T03:52:29.828Z,9.85
2022-11-03T03:54:57.032Z,7.15
2022-11-03T03:57:24.844Z,7.60
2022-11-03T03:59:51.970Z,7.62
2022-11-03T04:02:18.989Z,7.22
2022-11-03T04:04:45.884Z,6.75
2022-11-03T04:07:31.424Z,8.32
2022-11-03T04:09:58.250Z,7.60
2022-11-03T04:15:32.161Z,7.50
2022-11-03T04:18:17.747Z,10.05
2022-11-03T04:21:03.311Z,6.40
2022-11-03T04:23:30.217Z,7.22
2022-11-03T04:25:57.776Z,7.12
2022-11-03T04:28:25.990Z,12.63
2022-11-03T04:30:58.710Z,5.93
2022-11-03T04:33:26.487Z,9.85
2022-11-03T04:35:54.199Z,8.93
2022-11-03T04:38:23.366Z,8.30
2022-11-03T04:40:55.162Z,5.78
2022-11-03T04:43:24.386Z,10.88
2022-11-03T04:45:51.391Z,8.13
2022-11-03T04:48:25.191Z,7.40
2022-11-03T04:51:03.163Z,6.93
2022-11-03T04:53:32.378Z,7.12
2022-11-03T04:56:04.465Z,8.02
2022-11-03T04:58:35.550Z,8.73
2022-11-03T05:01:04.284Z,6.78
2022-11-03T05:03:35.304Z,7.97
2022-11-03T05:06:16.691Z,6.22
2022-11-03T05:08:46.453Z,6.70
2022-11-03T05:11:21.349Z,13.23
2022-11-03T05:13:49.062Z,6.53
2022-11-03T05:16:16.584Z,8.15
2022-11-03T05:18:45.242Z,9.82
2022-11-03T05:21:17.494Z,8.65
2022-11-03T05:23:49.278Z,8.77
2022-11-03T05:26:20.961Z,6.25
2022-11-03T05:28:52.551Z,7.85
2022-11-03T05:31:28.147Z,6.45
2022-11-03T05:33:58.387Z,7.22
2022-11-03T05:36:26.793Z,5.22
2022-11-03T05:39:00.298Z,11.40
2022-11-03T05:41:29.215Z,6.90
2022-11-03T05:44:27.170Z,5.53
2022-11-03T05:46:54.019Z,6.15
2022-11-03T05:49:21.488Z,8.90
2022-11-03T05:51:48.670Z,7.43
2022-11-03T05:54:35.428Z,7.90
2022-11-03T05:57:02.275Z,9.88
2022-11-03T05:59:30.073Z,6.07
2022-11-03T06:01:59.914Z,6.20
2022-11-03T06:04:33.455Z,5.60
2022-11-03T06:07:08.892Z,6.10
2022-11-03T06:09:35.711Z,5.82
2022-11-03T06:12:05.835Z,6.22
2022-11-03T06:14:33.436Z,4.53
2022-11-03T06:17:06.036Z,7.05
2022-11-03T06:19:43.647Z,4.85
2022-11-03T06:22:28.886Z,9.07
2022-11-03T06:24:58.749Z,8.32
2022-11-03T06:27:26.912Z,5.57
2022-11-03T06:30:00.498Z,5.32
2022-11-03T06:32:28.354Z,7.68
2022-11-03T06:34:59.081Z,5.80
2022-11-03T06:37:32.725Z,5.55
2022-11-03T06:40:11.237Z,6.10
2022-11-03T06:42:41.283Z,7.15
2022-11-03T06:45:23.104Z,7.82
2022-11-03T06:47:50.494Z,5.95
2022-11-03T06:50:30.141Z,8.68
2022-11-03T06:52:58.009Z,7.93
2022-11-03T06:55:25.702Z,7.70
2022-11-03T06:58:15.474Z,8.00
2022-11-03T07:00:48.930Z,8.50
2022-11-03T07:03:33.572Z,6.62
2022-11-03T07:06:24.805Z,9.90
2022-11-03T07:08:57.010Z,16.58
2022-11-03T07:11:26.469Z,14.75
2022-11-03T07:13:57.216Z,9.38
2022-11-03T07:16:32.440Z,8.82
2022-11-03T07:19:00.936Z,9.45
2022-11-03T07:21:38.269Z,8.65
2022-11-03T07:24:34.027Z,6.30
2022-11-03T07:27:13.158Z,9.07
2022-11-03T07:29:40.547Z,6.50
2022-11-03T07:32:21.965Z,8.63
2022-11-03T07:34:49.899Z,11.43
2022-11-03T07:37:21.180Z,11.77
2022-11-03T07:39:49.056Z,9.60
2022-11-03T07:42:19.131Z,11.35
2022-11-03T07:44:46.479Z,7.93
2022-11-03T07:47:25.991Z,6.18
2022-11-03T07:49:53.002Z,7.78
2022-11-03T07:52:22.337Z,7.95
2022-11-03T07:54:51.541Z,4.47
2022-11-03T07:57:27.038Z,5.85
2022-11-03T08:00:08.919Z,6.60
2022-11-03T08:02:38.159Z,4.37
2022-11-03T08:05:05.678Z,5.55
2022-11-03T08:07:32.859Z,4.55
2022-11-03T08:09:59.762Z,5.10
2022-11-03T08:12:26.634Z,5.57
2022-11-03T08:14:53.530Z,3.80
2022-11-03T08:17:20.355Z,5.75
2022-11-03T08:19:47.229Z,4.12
2022-11-03T08:22:14.096Z,6.00
2022-11-03T08:24:41.021Z,5.20
2022-11-03T08:27:07.929Z,4.82
2022-11-03T08:29:34.837Z,4.95
2022-11-03T08:32:01.743Z,6.53
2022-11-03T08:34:28.652Z,8.40
2022-11-03T08:36:55.510Z,7.60
2022-11-03T08:39:22.336Z,8.60
2022-11-03T08:41:49.165Z,8.70
2022-11-03T08:44:15.991Z,7.37
2022-11-03T08:46:42.904Z,6.62
2022-11-03T08:49:09.793Z,7.12
2022-11-03T08:51:41.444Z,8.98
2022-11-03T08:54:10.912Z,9.07
2022-11-03T08:56:37.799Z,8.93
2022-11-03T08:59:04.654Z,8.63
2022-11-03T09:01:31.547Z,10.63
2022-11-03T09:03:58.586Z,12.18
2022-11-03T09:06:25.564Z,9.18
2022-11-03T09:11:39.187Z,8.87
2022-11-03T09:14:06.026Z,10.15
2022-11-03T09:16:32.893Z,12.98
2022-11-03T09:18:59.822Z,9.82
2022-11-03T09:21:26.649Z,10.57
2022-11-03T09:23:53.543Z,10.35
2022-11-03T09:26:20.442Z,9.85
2022-11-03T09:28:47.449Z,7.62
2022-11-03T09:31:14.366Z,10.95
2022-11-03T09:33:41.225Z,10.23
2022-11-03T09:36:08.471Z,11.82
2022-11-03T09:38:35.429Z,9.35
2022-11-03T09:41:09.627Z,10.80
2022-11-03T09:43:46.293Z,12.77
2022-11-03T09:46:14.246Z,10.57
2022-11-03T09:48:41.148Z,9.80
2022-11-03T09:51:10.120Z,10.68
2022-11-03T09:53:37.215Z,13.45
2022-11-03T09:56:04.192Z,10.07
2022-11-03T09:58:34.465Z,10.65
2022-11-03T10:01:01.782Z,9.32
2022-11-03T10:03:29.198Z,9.60
2022-11-03T10:05:56.460Z,8.80
2022-11-03T10:08:29.105Z,11.35
2022-11-03T10:10:56.542Z,12.13
2022-11-03T10:13:47.761Z,11.18
2022-11-03T10:16:19.316Z,11.60
2022-11-03T10:18:46.393Z,15.48
2022-11-03T10:21:31.530Z,16.60
2022-11-03T10:23:58.380Z,15.25
2022-11-03T10:26:25.240Z,18.40
2022-11-03T10:29:04.521Z,18.05
2022-11-03T10:31:35.697Z,16.42
2022-11-03T10:34:03.123Z,17.77
2022-11-03T10:36:31.889Z,16.12
2022-11-03T10:38:59.457Z,13.18
2022-11-03T10:41:31.429Z,15.60
2022-11-03T10:44:02.771Z,17.42
2022-11-03T10:46:48.997Z,15.40
2022-11-03T10:49:19.534Z,18.10
2022-11-03T10:51:54.562Z,18.25
2022-11-03T10:54:23.464Z,18.87
2022-11-03T10:56:51.990Z,16.65
2022-11-03T10:59:21.212Z,17.60
2022-11-03T11:01:48.382Z,17.95
2022-11-03T11:04:19.818Z,22.50
2022-11-03T11:06:47.384Z,21.37
2022-11-03T11:09:28.110Z,21.48
2022-11-03T11:12:05.227Z,20.15
2022-11-03T11:17:04.034Z,20.48
2022-11-03T11:19:31.483Z,20.15
2022-11-03T11:22:00.079Z,20.80
2022-11-03T11:24:45.868Z,19.33
2022-11-03T11:27:34.437Z,20.40
2022-11-03T11:30:08.595Z,22.20
2022-11-03T11:32:44.827Z,22.92
2022-11-03T11:35:23.949Z,21.07
2022-11-03T11:37:51.071Z,22.40
2022-11-03T11:40:26.648Z,19.12
2022-11-03T11:43:02.582Z,22.25
2022-11-03T11:46:06.889Z,24.00
2022-11-03T11:48:33.961Z,24.92
2022-11-03T11:51:01.735Z,21.60
2022-11-03T11:53:32.820Z,26.77
2022-11-03T11:56:01.830Z,24.27
2022-11-03T11:58:43.704Z,22.45
2022-11-03T12:01:30.813Z,26.75
2022-11-03T12:03:59.900Z,30.48
2022-11-03T12:06:34.750Z,25.55
2022-11-03T12:09:16.708Z,23.95
2022-11-03T12:11:46.111Z,26.65
2022-11-03T12:14:29.100Z,24.12
2022-11-03T12:16:56.993Z,25.33
2022-11-03T12:19:38.927Z,29.55
2022-11-03T12:22:33.200Z,28.12
2022-11-03T12:25:01.403Z,25.95
2022-11-03T12:27:29.034Z,30.42
2022-11-03T12:29:56.715Z,28.23
2022-11-03T12:32:33.188Z,31.42
2022-11-03T12:35:02.722Z,32.75
2022-11-03T12:37:29.626Z,35.58
2022-11-03T12:39:56.477Z,37.42
2022-11-03T12:42:25.136Z,33.90
2022-11-03T12:44:52.771Z,33.17
2022-11-03T12:47:20.517Z,34.33
2022-11-03T12:49:50.384Z,29.67
2022-11-03T12:52:17.246Z,29.87
2022-11-03T12:54:44.591Z,35.08
2022-11-03T12:57:11.520Z,32.65
2022-11-03T12:59:38.365Z,31.58
2022-11-03T13:02:05.470Z,32.58
2022-11-03T13:04:32.492Z,30.52
2022-11-03T13:06:59.418Z,30.70
2022-11-03T13:09:26.262Z,34.42
2022-11-03T13:12:11.456Z,30.25
2022-11-03T13:14:38.269Z,34.78
2022-11-03T13:17:05.096Z,25.52
2022-11-03T13:19:31.933Z,25.88
2022-11-03T13:21:58.784Z,32.83
2022-11-03T13:24:25.650Z,33.75
2022-11-03T13:26:52.522Z,32.13
2022-11-03T13:29:19.529Z,33.65
2022-11-03T13:31:46.388Z,31.90
2022-11-03T13:34:13.261Z,29.40
2022-11-03T13:36:40.116Z,32.65
2022-11-03T13:39:07.033Z,38.13
2022-11-03T13:41:33.945Z,31.65
2022-11-03T13:44:00.901Z,36.65
2022-11-03T13:46:27.743Z,37.05
2022-11-03T13:51:41.740Z,32.72
2022-11-03T13:59:42.463Z,37.27
2022-11-03T14:04:56.484Z,28.75
2022-11-03T14:07:23.375Z,30.12
2022-11-03T14:09:50.318Z,31.45
2022-11-03T14:12:32.260Z,38.88
2022-11-03T14:15:04.220Z,29.05
2022-11-03T14:17:31.552Z,33.55
2022-11-03T14:20:03.681Z,32.95
2022-11-03T14:22:31.742Z,34.90
2022-11-03T14:24:58.846Z,34.17
2022-11-03T14:27:26.184Z,35.20
2022-11-03T14:29:53.210Z,39.28
2022-11-03T14:32:20.490Z,33.47
2022-11-03T14:34:48.095Z,30.80
2022-11-03T14:37:15.590Z,37.63
2022-11-03T14:39:42.565Z,33.38
2022-11-03T14:42:15.473Z,34.38
2022-11-03T14:44:45.202Z,34.20
2022-11-03T14:47:14.337Z,34.22
2022-11-03T14:49:41.327Z,34.92
2022-11-03T14:52:08.295Z,37.17
2022-11-03T14:54:36.525Z,36.92
2022-11-03T14:57:04.439Z,26.35
2022-11-03T14:59:31.844Z,35.25
2022-11-03T15:01:59.211Z,40.88
2022-11-03T15:04:26.545Z,36.53
2022-11-03T15:06:53.412Z,23.12
2022-11-03T15:09:20.422Z,36.40
2022-11-03T15:11:47.417Z,30.30
2022-11-03T15:14:14.328Z,41.30
2022-11-03T15:16:41.255Z,40.17
2022-11-03T15:19:08.257Z,42.22
2022-11-03T15:21:35.505Z,38.90
2022-11-03T15:26:49.822Z,40.75
2022-11-03T15:29:16.659Z,34.95
2022-11-03T15:31:47.977Z,43.38
2022-11-03T15:34:16.413Z,42.88
2022-11-03T15:36:43.295Z,38.80
2022-11-03T15:39:10.240Z,39.05
2022-11-03T15:41:37.076Z,44.53
2022-11-03T15:44:03.954Z,45.33
2022-11-03T15:46:30.825Z,41.00
2022-11-03T15:48:57.866Z,40.95
2022-11-03T15:51:25.420Z,36.25
2022-11-03T15:53:57.924Z,44.22
2022-11-03T15:56:26.226Z,41.20
2022-11-03T15:58:53.078Z,41.67
2022-11-03T16:01:20.608Z,41.72
2022-11-03T16:03:47.664Z,40.35
2022-11-03T16:08:41.204Z,46.55
2022-11-03T16:11:09.236Z,47.05
2022-11-03T16:13:36.406Z,39.78
2022-11-03T16:16:03.533Z,44.13
2022-11-03T16:18:30.543Z,43.95
2022-11-03T16:20:57.403Z,42.28
2022-11-03T16:23:24.414Z,37.97
2022-11-03T16:25:51.294Z,42.00
2022-11-03T16:28:18.139Z,40.35
2022-11-03T16:30:48.441Z,43.45
2022-11-03T16:33:18.065Z,35.17
2022-11-03T16:35:44.906Z,40.05
2022-11-03T16:40:38.523Z,25.10
2022-11-03T16:43:05.344Z,39.38
2022-11-03T16:48:05.492Z,40.80
2022-11-03T16:50:32.915Z,41.97
2022-11-03T16:52:59.875Z,45.42
2022-11-03T16:55:26.765Z,38.25
2022-11-03T16:57:53.642Z,42.88
2022-11-03T17:00:21.052Z,37.60
2022-11-03T17:02:48.140Z,43.35
2022-11-03T17:05:16.815Z,39.75
2022-11-03T17:07:46.308Z,41.33
2022-11-03T17:10:15.714Z,47.20
2022-11-03T17:12:42.577Z,46.85
2022-11-03T17:15:09.903Z,37.47
2022-11-03T17:17:36.950Z,49.28
2022-11-03T17:20:05.227Z,39.72
2022-11-03T17:22:32.065Z,81.90
2022-11-03T17:27:33.362Z,38.03
2022-11-03T17:30:02.168Z,105.30
2022-11-03T17:32:31.186Z,45.63
2022-11-03T17:34:58.470Z,54.78
2022-11-03T17:37:25.958Z,252.73
2022-11-03T17:39:52.894Z,158.40
2022-11-03T17:42:27.369Z,304.87
2022-11-03T17:44:55.753Z,84.22
2022-11-03T17:47:23.234Z,149.30
2022-11-03T17:49:50.327Z,245.07
2022-11-03T17:52:27.864Z,113.53
2022-11-03T17:54:57.630Z,248.57
2022-11-03T17:57:25.664Z,37.33
2022-11-03T17:59:58.236Z,91.85
2022-11-03T18:02:26.761Z,52.25
2022-11-03T18:05:00.187Z,324.67
2022-11-03T18:07:28.415Z,410.25
2022-11-03T18:09:56.308Z,112.62
2022-11-03T18:12:44.827Z,230.93
2022-11-03T18:15:15.881Z,244.45
2022-11-03T18:17:42.795Z,26.70
2022-11-03T18:20:30.213Z,105.85
2022-11-03T18:23:11.617Z,87.45
2022-11-03T18:25:38.510Z,337.50
2022-11-03T18:28:05.590Z,346.42
2022-11-03T18:30:32.721Z,209.82
2022-11-03T18:32:59.583Z,130.48
2022-11-03T18:35:29.217Z,184.63
2022-11-03T18:37:56.713Z,277.95
2022-11-03T18:40:23.601Z,154.70
2022-11-03T18:42:50.427Z,106.07
2022-11-03T18:47:45.018Z,122.93
2022-11-03T18:50:17.219Z,117.53
2022-11-03T18:52:48.591Z,83.28
2022-11-03T18:55:16.475Z,236.23
2022-11-03T18:57:44.301Z,129.43
2022-11-03T19:00:17.473Z,147.35
2022-11-03T19:02:44.384Z,441.02
2022-11-03T19:05:15.373Z,128.57
2022-11-03T19:07:45.422Z,325.40
2022-11-03T19:10:20.355Z,78.03
2022-11-03T19:12:47.487Z,185.40
2022-11-03T19:15:22.911Z,119.32
2022-11-03T19:17:51.558Z,157.00
2022-11-03T19:20:18.866Z,95.18
2022-11-03T19:22:46.153Z,178.05
2022-11-03T19:25:14.654Z,277.23
2022-11-03T19:27:44.706Z,195.12
2022-11-03T19:30:14.457Z,330.12
2022-11-03T19:32:44.793Z,175.93
2022-11-03T19:35:21.241Z,30.12
2022-11-03T19:37:50.605Z,332.07
2022-11-03T19:40:19.082Z,143.60
2022-11-03T19:42:48.755Z,148.38
2022-11-03T19:45:18.685Z,120.85
2022-11-03T19:48:18.170Z,132.57
2022-11-03T19:50:36.891Z,228.98
2022-11-03T19:53:05.927Z,212.20
2022-11-03T19:55:41.216Z,204.23
2022-11-03T19:58:14.459Z,158.05
2022-11-03T20:00:41.590Z,255.65
2022-11-03T20:03:08.507Z,176.90
2022-11-03T20:05:35.472Z,35.47
2022-11-03T20:08:05.268Z,123.62
2022-11-03T20:10:35.834Z,163.32
2022-11-03T20:13:03.737Z,55.53
2022-11-03T20:15:30.651Z,58.60
2022-11-03T20:17:57.499Z,133.95
2022-11-03T20:20:26.837Z,41.58
2022-11-03T20:22:56.324Z,122.65
2022-11-03T20:25:28.332Z,87.65
2022-11-03T20:27:56.772Z,217.05
2022-11-03T20:30:26.083Z,139.37
2022-11-03T20:32:53.445Z,194.32
2022-11-03T20:35:25.924Z,101.07
2022-11-03T20:37:58.410Z,94.80
2022-11-03T20:40:27.296Z,48.40
2022-11-03T20:42:56.896Z,202.68
2022-11-03T20:45:25.461Z,236.68
2022-11-03T20:47:52.711Z,192.40
2022-11-03T20:50:20.614Z,52.38
2022-11-03T20:52:48.438Z,61.15
2022-11-03T20:55:20.970Z,242.18
2022-11-03T20:57:48.749Z,86.53
2022-11-03T21:00:24.255Z,79.53
2022-11-03T21:02:52.071Z,52.88
2022-11-03T21:05:24.830Z,55.12
2022-11-03T21:07:52.253Z,67.30
2022-11-03T21:10:20.917Z,94.15
2022-11-03T21:12:48.122Z,103.00
2022-11-03T21:15:52.383Z,66.87
2022-11-03T21:18:46.662Z,74.62
2022-11-03T21:21:18.152Z,72.12
2022-11-03T21:23:47.615Z,68.12
2022-11-03T21:26:14.663Z,48.60
2022-11-03T21:28:41.626Z,58.60
2022-11-03T21:31:11.923Z,52.92
2022-11-03T21:33:38.747Z,79.35
2022-11-03T21:38:32.467Z,79.45
2022-11-03T21:41:19.219Z,68.47
2022-11-03T21:44:04.930Z,76.43
2022-11-03T21:46:31.803Z,71.20
2022-11-03T21:49:17.309Z,71.68
2022-11-03T21:51:44.142Z,68.25
2022-11-03T21:54:10.975Z,69.10
2022-11-03T21:56:37.857Z,66.12
2022-11-03T21:59:04.748Z,39.35
2022-11-03T22:01:31.751Z,47.55
2022-11-03T22:03:59.461Z,59.55
2022-11-03T22:06:26.484Z,58.72
2022-11-03T22:08:53.312Z,64.93
2022-11-03T22:11:22.814Z,55.20
2022-11-03T22:13:51.616Z,32.75
2022-11-03T22:16:36.899Z,59.15
2022-11-03T22:19:30.708Z,54.83
2022-11-03T22:22:16.939Z,54.22
2022-11-03T22:25:02.566Z,52.15
2022-11-03T22:27:30.857Z,51.17
2022-11-03T22:30:16.380Z,55.40
2022-11-03T22:32:43.622Z,54.85
2022-11-03T22:35:30.271Z,57.62
2022-11-03T22:38:07.180Z,55.47
2022-11-03T22:40:53.568Z,57.22
2022-11-03T22:43:39.386Z,57.10
2022-11-03T22:46:06.388Z,58.30
2022-11-03T22:48:33.732Z,57.17
2022-11-03T22:51:13.356Z,66.22
2022-11-03T22:53:58.577Z,68.07
2022-11-03T22:56:28.517Z,60.53
2022-11-03T22:58:55.651Z,57.40
2022-11-03T23:01:24.680Z,58.60
2022-11-03T23:03:51.626Z,50.42
2022-11-03T23:06:25.161Z,57.72
2022-11-03T23:08:52.871Z,58.47
2022-11-03T23:11:20.988Z,58.70
2022-11-03T23:13:53.077Z,62.10
2022-11-03T23:16:22.263Z,55.08
2022-11-03T23:19:08.141Z,59.38
2022-11-03T23:21:35.294Z,42.60
2022-11-03T23:24:20.751Z,52.10
2022-11-03T23:26:48.005Z,50.08
2022-11-03T23:29:15.768Z,52.35
2022-11-03T23:31:43.837Z,56.78
2022-11-03T23:34:12.056Z,58.50
2022-11-03T23:36:39.034Z,46.53
2022-11-03T23:39:06.850Z,47.53
2022-11-03T23:41:33.786Z,59.33
2022-11-03T23:44:00.641Z,62.15
2022-11-03T23:46:47.378Z,62.90
2022-11-03T23:49:14.807Z,56.28
2022-11-03T23:51:44.912Z,60.22
2022-11-03T23:54:12.396Z,73.87
2022-11-03T23:57:00.125Z,57.00
2022-11-03T23:59:27.782Z,81.78
